KGSP/GSP METAR and TAF weather

Enter ICAO airport designator
Station Type Date Time Source
KGSP METAR 2022/01/23 10:53 UTC NOAA

KGSP 231053Z 00000KT 7SM CLR M04/M07 A3006 RMK AO2 SLP186 T10441067


Station Type Date Time Source
KGSP Decoded METAR 2022/01/23 10:53 UTC NOAA

GREER GREENVILLE SPARTBURG, SC, United States (KGSP) 34-53N 82-13W 286M
Jan 23, 2022 - 05:53 AM EST / 2022.01.23 1053 UTC
Wind: Calm:0
Visibility: 7 mile(s):0
Sky conditions: clear
Temperature: 24.1 F (-4.4 C)
Dew Point: 19.9 F (-6.7 C)
Relative Humidity: 83%
Pressure (altimeter): 30.06 in. Hg (1017 hPa)
ob: KGSP 231053Z 00000KT 7SM CLR M04/M07 A3006 RMK AO2 SLP186 T10441067
cycle: 11

Station Type Date Time Source
KGSP TAF 2022/01/23 12:33 UTC NOAA

TAF KGSP 231130Z 2312/2412 VRB02KT P6SM FEW250
TEMPO 2312/2313 5SM BR
FM231600 23007KT P6SM SCT250
FM232100 24009KT P6SM SCT250
FM240300 26007KT P6SM SCT250
FM240600 27004KT P6SM SCT250

Example: see airport list